createdAt,value
2018-08-28T00:00:20.955Z,1011.27
2018-08-28T00:01:20.941Z,1011.27
2018-08-28T00:02:20.927Z,1011.29
2018-08-28T00:03:20.911Z,1011.29
2018-08-28T00:04:20.899Z,1011.31
2018-08-28T00:05:20.884Z,1011.31
2018-08-28T00:06:20.875Z,1011.29
2018-08-28T00:07:20.858Z,1011.33
2018-08-28T00:08:20.846Z,1011.31
2018-08-28T00:09:20.830Z,1011.30
2018-08-28T00:10:20.818Z,1011.31
2018-08-28T00:11:20.805Z,1011.31
2018-08-28T00:12:20.792Z,1011.32
2018-08-28T00:13:20.782Z,1011.29
2018-08-28T00:14:20.773Z,1011.30
2018-08-28T00:15:20.749Z,1011.29
2018-08-28T00:16:20.735Z,1011.27
2018-08-28T00:17:20.721Z,1011.29
2018-08-28T00:18:20.709Z,1011.26
2018-08-28T00:19:20.699Z,1011.22
2018-08-28T00:20:20.686Z,1011.22
2018-08-28T00:21:20.668Z,1011.18
2018-08-28T00:22:20.655Z,1011.24
2018-08-28T00:23:20.641Z,1011.30
2018-08-28T00:24:20.629Z,1011.29
2018-08-28T00:25:20.615Z,1011.31
2018-08-28T00:26:20.601Z,1011.35
2018-08-28T00:27:20.585Z,1011.38
2018-08-28T00:28:20.572Z,1011.39
2018-08-28T00:29:20.571Z,1011.36
2018-08-28T00:30:20.548Z,1011.41
2018-08-28T00:31:20.533Z,1011.40
2018-08-28T00:32:20.518Z,1011.41
2018-08-28T00:33:20.507Z,1011.41
2018-08-28T00:34:20.508Z,1011.45
2018-08-28T00:35:20.491Z,1011.42
2018-08-28T00:36:20.465Z,1011.48
2018-08-28T00:37:20.453Z,1011.46
2018-08-28T00:38:20.444Z,1011.47
2018-08-28T00:39:20.424Z,1011.45
2018-08-28T00:40:20.415Z,1011.48
2018-08-28T00:41:20.398Z,1011.49
2018-08-28T00:42:20.383Z,1011.50
2018-08-28T00:43:20.369Z,1011.49
2018-08-28T00:44:20.355Z,1011.49
2018-08-28T00:45:20.341Z,1011.49
2018-08-28T00:46:20.332Z,1011.49
2018-08-28T00:47:20.315Z,1011.51
2018-08-28T00:48:20.300Z,1011.48
2018-08-28T00:49:20.290Z,1011.50
2018-08-28T00:50:20.274Z,1011.51
2018-08-28T00:51:20.261Z,1011.49
2018-08-28T00:52:20.299Z,1011.48
2018-08-28T00:53:20.234Z,1011.51
2018-08-28T00:54:20.224Z,1011.50
2018-08-28T00:55:20.204Z,1011.53
2018-08-28T00:56:20.197Z,1011.54
2018-08-28T00:57:20.177Z,1011.54
2018-08-28T00:58:20.162Z,1011.53
2018-08-28T00:59:20.152Z,1011.56
2018-08-28T01:00:20.139Z,1011.58
2018-08-28T01:01:20.136Z,1011.58
2018-08-28T01:02:20.114Z,1011.58
2018-08-28T01:03:20.099Z,1011.59
2018-08-28T01:04:20.085Z,1011.56
2018-08-28T01:05:20.072Z,1011.52
2018-08-28T01:06:20.057Z,1011.57
2018-08-28T01:07:20.042Z,1011.55
2018-08-28T01:08:20.030Z,1011.54
2018-08-28T01:09:20.017Z,1011.54
2018-08-28T01:10:20.009Z,1011.54
2018-08-28T01:11:19.988Z,1011.52
2018-08-28T01:12:19.976Z,1011.53
2018-08-28T01:13:19.961Z,1011.55
2018-08-28T01:14:19.951Z,1011.53
2018-08-28T01:15:19.934Z,1011.52
2018-08-28T01:16:19.920Z,1011.52
2018-08-28T01:17:19.908Z,1011.52
2018-08-28T01:18:19.894Z,1011.55
2018-08-28T01:19:19.888Z,1011.54
2018-08-28T01:20:19.870Z,1011.55
2018-08-28T01:21:19.852Z,1011.57
2018-08-28T01:22:19.848Z,1011.59
2018-08-28T01:23:19.830Z,1011.57
2018-08-28T01:24:19.811Z,1011.54
2018-08-28T01:25:19.801Z,1011.56
2018-08-28T01:26:19.785Z,1011.57
2018-08-28T01:27:19.771Z,1011.58
2018-08-28T01:28:19.757Z,1011.57
2018-08-28T01:29:19.744Z,1011.61
2018-08-28T01:30:19.732Z,1011.57
2018-08-28T01:31:19.721Z,1011.60
2018-08-28T01:32:19.704Z,1011.62
2018-08-28T01:33:19.695Z,1011.58
2018-08-28T01:34:19.680Z,1011.61
2018-08-28T01:35:19.663Z,1011.59
2018-08-28T01:36:19.648Z,1011.60
2018-08-28T01:37:19.640Z,1011.62
2018-08-28T01:38:19.630Z,1011.63
2018-08-28T01:39:19.609Z,1011.60
2018-08-28T01:40:19.598Z,1011.60
2018-08-28T01:41:19.591Z,1011.60
2018-08-28T01:42:19.583Z,1011.58
2018-08-28T01:43:19.553Z,1011.59
2018-08-28T01:44:19.541Z,1011.60
2018-08-28T01:45:19.527Z,1011.57
2018-08-28T01:46:19.520Z,1011.58
2018-08-28T01:47:19.502Z,1011.62
2018-08-28T01:48:19.487Z,1011.60
2018-08-28T01:49:19.474Z,1011.64
2018-08-28T01:50:19.460Z,1011.64
2018-08-28T01:51:19.447Z,1011.64
2018-08-28T01:52:19.433Z,1011.62
2018-08-28T01:53:19.422Z,1011.65
2018-08-28T01:54:19.404Z,1011.66
2018-08-28T01:55:19.394Z,1011.68
2018-08-28T01:56:19.379Z,1011.67
2018-08-28T01:57:19.367Z,1011.65
2018-08-28T01:58:19.354Z,1011.66
2018-08-28T01:59:19.337Z,1011.66
2018-08-28T02:00:19.326Z,1011.66
2018-08-28T02:01:19.319Z,1011.67
2018-08-28T02:02:19.297Z,1011.70
2018-08-28T02:03:19.283Z,1011.68
2018-08-28T02:04:19.276Z,1011.68
2018-08-28T02:05:19.263Z,1011.71
2018-08-28T02:06:19.244Z,1011.72
2018-08-28T02:07:19.230Z,1011.68
2018-08-28T02:08:19.220Z,1011.74
2018-08-28T02:09:19.212Z,1011.71
2018-08-28T02:10:19.193Z,1011.73
2018-08-28T02:11:19.175Z,1011.71
2018-08-28T02:12:19.162Z,1011.67
2018-08-28T02:13:19.239Z,1011.71
2018-08-28T02:14:19.141Z,1011.69
2018-08-28T02:15:19.119Z,1011.72
2018-08-28T02:16:19.113Z,1011.72
2018-08-28T02:17:19.094Z,1011.73
2018-08-28T02:18:19.082Z,1011.69
2018-08-28T02:19:19.065Z,1011.70
2018-08-28T02:20:19.053Z,1011.70
2018-08-28T02:21:19.049Z,1011.71
2018-08-28T02:22:19.026Z,1011.69
2018-08-28T02:23:19.014Z,1011.72
2018-08-28T02:24:19.003Z,1011.69
2018-08-28T02:25:18.986Z,1011.68
2018-08-28T02:26:18.977Z,1011.73
2018-08-28T02:27:18.958Z,1011.68
2018-08-28T02:28:18.954Z,1011.70
2018-08-28T02:29:18.931Z,1011.69
2018-08-28T02:30:18.922Z,1011.71
2018-08-28T02:31:18.905Z,1011.66
2018-08-28T02:32:18.895Z,1011.70
2018-08-28T02:33:18.877Z,1011.72
2018-08-28T02:34:18.864Z,1011.73
2018-08-28T02:35:18.849Z,1011.68
2018-08-28T02:36:18.859Z,1011.69
2018-08-28T02:37:18.826Z,1011.69
2018-08-28T02:38:18.811Z,1011.69
2018-08-28T02:39:18.799Z,1011.68
2018-08-28T02:40:18.809Z,1011.69
2018-08-28T02:41:18.767Z,1011.69
2018-08-28T02:42:18.759Z,1011.67
2018-08-28T02:43:18.744Z,1011.64
2018-08-28T02:44:18.731Z,1011.66
2018-08-28T02:45:18.713Z,1011.69
2018-08-28T02:46:18.701Z,1011.72
2018-08-28T02:47:18.685Z,1011.74
2018-08-28T02:48:18.672Z,1011.75
2018-08-28T02:49:18.660Z,1011.78
2018-08-28T02:50:18.650Z,1011.73
2018-08-28T02:51:18.640Z,1011.75
2018-08-28T02:52:18.619Z,1011.77
2018-08-28T02:53:18.606Z,1011.78
2018-08-28T02:54:18.591Z,1011.76
2018-08-28T02:55:18.579Z,1011.79
2018-08-28T02:56:18.639Z,1011.79
2018-08-28T02:57:18.549Z,1011.79
2018-08-28T02:58:18.535Z,1011.80
2018-08-28T02:59:18.527Z,1011.78
2018-08-28T03:00:18.508Z,1011.76
2018-08-28T03:01:18.495Z,1011.77
2018-08-28T03:02:18.482Z,1011.81
2018-08-28T03:03:18.470Z,1011.84
2018-08-28T03:04:18.456Z,1011.83
2018-08-28T03:05:18.441Z,1011.85
2018-08-28T03:06:18.429Z,1011.83
2018-08-28T03:07:18.416Z,1011.86
2018-08-28T03:08:18.401Z,1011.90
2018-08-28T03:09:18.388Z,1011.86
2018-08-28T03:10:18.370Z,1011.86
2018-08-28T03:11:18.362Z,1011.86
2018-08-28T03:12:18.343Z,1011.87
2018-08-28T03:13:18.331Z,1011.83
2018-08-28T03:14:18.319Z,1011.84
2018-08-28T03:15:18.305Z,1011.83
2018-08-28T03:16:18.290Z,1011.82
2018-08-28T03:17:18.278Z,1011.85
2018-08-28T03:18:18.263Z,1011.84
2018-08-28T03:19:18.248Z,1011.84
2018-08-28T03:20:18.236Z,1011.87
2018-08-28T03:21:18.226Z,1011.88
2018-08-28T03:22:18.218Z,1011.88
2018-08-28T03:23:18.192Z,1011.90
2018-08-28T03:24:18.179Z,1011.90
2018-08-28T03:25:18.167Z,1011.93
2018-08-28T03:26:18.152Z,1011.91
2018-08-28T03:27:18.141Z,1011.90
2018-08-28T03:28:18.125Z,1011.92
2018-08-28T03:29:18.117Z,1011.92
2018-08-28T03:30:18.104Z,1011.94
2018-08-28T03:31:18.086Z,1011.95
2018-08-28T03:32:18.072Z,1011.95
2018-08-28T03:33:18.056Z,1011.94
2018-08-28T03:34:18.042Z,1011.98
2018-08-28T03:35:18.034Z,1011.97
2018-08-28T03:36:18.018Z,1011.97
2018-08-28T03:37:18.000Z,1011.98
2018-08-28T03:38:18.007Z,1012.00
2018-08-28T03:39:17.974Z,1012.01
2018-08-28T03:40:17.964Z,1011.98
2018-08-28T03:41:17.950Z,1012.00
2018-08-28T03:42:17.935Z,1012.00
2018-08-28T03:43:17.922Z,1012.00
2018-08-28T03:44:17.906Z,1011.96
2018-08-28T03:45:17.891Z,1011.99
2018-08-28T03:46:17.882Z,1012.00
2018-08-28T03:47:17.861Z,1012.00
2018-08-28T03:48:17.851Z,1011.99
2018-08-28T03:49:17.834Z,1012.00
2018-08-28T03:50:17.820Z,1011.99
2018-08-28T03:51:17.807Z,1012.04
2018-08-28T03:52:17.794Z,1012.04
2018-08-28T03:53:17.778Z,1012.03
2018-08-28T03:54:17.770Z,1012.06
2018-08-28T03:55:17.762Z,1012.04
2018-08-28T03:56:17.741Z,1012.00
2018-08-28T03:57:17.724Z,1012.01
2018-08-28T03:58:17.710Z,1011.99
2018-08-28T03:59:17.698Z,1011.98
2018-08-28T04:00:17.683Z,1012.01
2018-08-28T04:01:17.669Z,1012.04
2018-08-28T04:02:17.656Z,1012.03
2018-08-28T04:03:17.646Z,1012.03
2018-08-28T04:04:17.639Z,1012.02
2018-08-28T04:05:17.614Z,1012.04
2018-08-28T04:06:17.605Z,1012.04
2018-08-28T04:07:17.586Z,1012.05
2018-08-28T04:08:17.573Z,1012.09
2018-08-28T04:09:17.559Z,1012.07
2018-08-28T04:10:17.546Z,1012.07
2018-08-28T04:11:17.538Z,1012.06
2018-08-28T04:12:17.519Z,1012.05
2018-08-28T04:13:17.507Z,1012.05
2018-08-28T04:14:17.489Z,1012.05
2018-08-28T04:15:17.485Z,1012.05
2018-08-28T04:16:17.464Z,1012.04
2018-08-28T04:17:17.448Z,1012.08
2018-08-28T04:18:17.434Z,1012.04
2018-08-28T04:19:17.420Z,1012.11
2018-08-28T04:20:17.410Z,1012.10
2018-08-28T04:21:17.397Z,1012.14
2018-08-28T04:22:17.380Z,1012.11
2018-08-28T04:23:17.367Z,1012.16
2018-08-28T04:24:17.352Z,1012.14
2018-08-28T04:25:17.338Z,1012.15
2018-08-28T04:26:17.323Z,1012.14
2018-08-28T04:27:17.308Z,1012.17
2018-08-28T04:28:17.298Z,1012.19
2018-08-28T04:29:17.282Z,1012.19
2018-08-28T04:30:17.294Z,1012.18
2018-08-28T04:31:17.258Z,1012.23
2018-08-28T04:32:17.244Z,1012.20
2018-08-28T04:33:17.230Z,1012.19
2018-08-28T04:34:17.215Z,1012.21
2018-08-28T04:35:17.203Z,1012.21
2018-08-28T04:36:17.186Z,1012.21
2018-08-28T04:37:17.175Z,1012.24
2018-08-28T04:38:17.172Z,1012.25
2018-08-28T04:39:17.149Z,1012.27
2018-08-28T04:40:17.133Z,1012.28
2018-08-28T04:41:17.127Z,1012.30
2018-08-28T04:42:17.124Z,1012.28
2018-08-28T04:43:17.092Z,1012.33
2018-08-28T04:44:17.078Z,1012.30
2018-08-28T04:45:17.068Z,1012.33
2018-08-28T04:46:17.053Z,1012.36
2018-08-28T04:47:17.041Z,1012.36
2018-08-28T04:48:17.022Z,1012.40
2018-08-28T04:49:17.010Z,1012.43
2018-08-28T04:50:16.997Z,1012.40
2018-08-28T04:51:16.988Z,1012.38
2018-08-28T04:52:16.969Z,1012.35
2018-08-28T04:53:16.955Z,1012.40
2018-08-28T04:54:16.955Z,1012.44
2018-08-28T04:55:16.929Z,1012.44
2018-08-28T04:56:16.911Z,1012.43
2018-08-28T04:57:16.901Z,1012.46
2018-08-28T04:58:16.885Z,1012.42
2018-08-28T04:59:16.874Z,1012.46
2018-08-28T05:00:16.860Z,1012.44
2018-08-28T05:01:16.843Z,1012.46
2018-08-28T05:02:16.830Z,1012.47
2018-08-28T05:03:16.817Z,1012.49
2018-08-28T05:04:16.802Z,1012.50
2018-08-28T05:05:16.789Z,1012.46
2018-08-28T05:06:16.777Z,1012.50
2018-08-28T05:07:16.760Z,1012.51
2018-08-28T05:08:16.747Z,1012.53
2018-08-28T05:09:16.732Z,1012.53
2018-08-28T05:10:16.725Z,1012.54
2018-08-28T05:11:16.705Z,1012.55
2018-08-28T05:12:16.695Z,1012.58
2018-08-28T05:13:16.678Z,1012.59
2018-08-28T05:14:16.664Z,1012.63
2018-08-28T05:15:16.651Z,1012.62
2018-08-28T05:16:16.646Z,1012.64
2018-08-28T05:17:16.622Z,1012.64
2018-08-28T05:18:16.610Z,1012.65
2018-08-28T05:19:16.677Z,1012.65
2018-08-28T05:20:16.589Z,1012.67
2018-08-28T05:21:16.566Z,1012.66
2018-08-28T05:22:16.553Z,1012.68
2018-08-28T05:23:16.538Z,1012.68
2018-08-28T05:24:16.526Z,1012.72
2018-08-28T05:25:16.513Z,1012.72
2018-08-28T05:26:16.502Z,1012.71
2018-08-28T05:27:16.486Z,1012.70
2018-08-28T05:28:16.473Z,1012.73
2018-08-28T05:29:16.457Z,1012.77
2018-08-28T05:30:16.504Z,1012.76
2018-08-28T05:31:16.431Z,1012.78
2018-08-28T05:32:16.416Z,1012.74
2018-08-28T05:33:16.401Z,1012.76
2018-08-28T05:34:16.388Z,1012.78
2018-08-28T05:35:16.373Z,1012.79
2018-08-28T05:36:16.362Z,1012.76
2018-08-28T05:37:16.352Z,1012.76
2018-08-28T05:38:16.339Z,1012.79
2018-08-28T05:39:16.318Z,1012.80
2018-08-28T05:40:16.304Z,1012.79
2018-08-28T05:41:16.293Z,1012.78
2018-08-28T05:42:16.282Z,1012.80
2018-08-28T05:43:16.265Z,1012.77
2018-08-28T05:44:16.250Z,1012.84
2018-08-28T05:45:16.237Z,1012.85
2018-08-28T05:46:16.226Z,1012.87
2018-08-28T05:47:16.207Z,1012.87
2018-08-28T05:48:16.246Z,1012.89
2018-08-28T05:49:16.186Z,1012.89
2018-08-28T05:50:16.169Z,1012.87
2018-08-28T05:51:16.153Z,1012.92
2018-08-28T05:52:16.143Z,1012.91
2018-08-28T05:53:16.130Z,1012.91
2018-08-28T05:54:16.110Z,1012.94
2018-08-28T05:55:16.098Z,1012.90
2018-08-28T05:56:16.097Z,1012.91
2018-08-28T05:57:16.073Z,1012.89
2018-08-28T05:58:16.058Z,1012.94
2018-08-28T05:59:16.048Z,1012.95
2018-08-28T06:00:16.033Z,1012.97
2018-08-28T06:01:16.021Z,1012.95
2018-08-28T06:02:16.008Z,1012.96
2018-08-28T06:03:16.121Z,1012.98
2018-08-28T06:04:15.979Z,1013.02
2018-08-28T06:05:15.976Z,1012.97
2018-08-28T06:06:15.952Z,1012.98
2018-08-28T06:07:15.936Z,1013.03
2018-08-28T06:08:15.927Z,1013.01
2018-08-28T06:09:15.911Z,1013.02
2018-08-28T06:10:15.902Z,1013.05
2018-08-28T06:11:15.885Z,1013.00
2018-08-28T06:12:15.873Z,1012.99
2018-08-28T06:13:15.863Z,1012.99
2018-08-28T06:14:15.853Z,1013.00
2018-08-28T06:15:15.831Z,1012.99
2018-08-28T06:16:15.819Z,1012.99
2018-08-28T06:17:15.804Z,1012.96
2018-08-28T06:18:15.793Z,1012.99
2018-08-28T06:19:15.781Z,1013.01
2018-08-28T06:20:15.767Z,1012.99
2018-08-28T06:21:15.756Z,1013.03
2018-08-28T06:22:15.740Z,1013.01
2018-08-28T06:23:15.727Z,1013.05
2018-08-28T06:24:15.714Z,1012.99
2018-08-28T06:25:15.701Z,1013.10
2018-08-28T06:26:15.695Z,1013.09
2018-08-28T06:27:15.675Z,1013.09
2018-08-28T06:28:15.663Z,1013.09
2018-08-28T06:29:15.657Z,1013.12
2018-08-28T06:30:15.639Z,1013.12
2018-08-28T06:31:15.619Z,1013.14
2018-08-28T06:32:15.609Z,1013.15
2018-08-28T06:33:15.593Z,1013.14
2018-08-28T06:34:15.583Z,1013.17
2018-08-28T06:35:15.566Z,1013.19
2018-08-28T06:36:15.562Z,1013.21
2018-08-28T06:37:15.596Z,1013.24
2018-08-28T06:38:15.529Z,1013.26
2018-08-28T06:39:15.513Z,1013.28
2018-08-28T06:40:15.505Z,1013.30
2018-08-28T06:41:15.487Z,1013.30
2018-08-28T06:42:15.475Z,1013.33
2018-08-28T06:43:15.465Z,1013.29
2018-08-28T06:44:15.452Z,1013.28
2018-08-28T06:45:15.436Z,1013.27
2018-08-28T06:46:15.421Z,1013.32
2018-08-28T06:47:15.412Z,1013.33
2018-08-28T06:48:15.397Z,1013.31
2018-08-28T06:49:15.383Z,1013.33
2018-08-28T06:50:15.369Z,1013.34
2018-08-28T06:51:15.359Z,1013.34
2018-08-28T06:52:15.340Z,1013.37
2018-08-28T06:53:15.328Z,1013.44
2018-08-28T06:54:15.319Z,1013.41
2018-08-28T06:55:15.303Z,1013.42
2018-08-28T06:56:15.292Z,1013.39
2018-08-28T06:57:15.277Z,1013.41
2018-08-28T06:58:15.264Z,1013.37
2018-08-28T06:59:15.250Z,1013.38
2018-08-28T07:00:15.245Z,1013.36
2018-08-28T07:01:15.227Z,1013.37
2018-08-28T07:02:15.228Z,1013.39
2018-08-28T07:03:15.197Z,1013.40
2018-08-28T07:04:15.184Z,1013.43
2018-08-28T07:05:15.172Z,1013.47
2018-08-28T07:06:15.163Z,1013.50
2018-08-28T07:07:15.144Z,1013.51
2018-08-28T07:08:15.131Z,1013.51
2018-08-28T07:09:15.120Z,1013.53
2018-08-28T07:10:15.135Z,1013.52
2018-08-28T07:11:15.093Z,1013.53
2018-08-28T07:12:15.081Z,1013.55
2018-08-28T07:13:15.068Z,1013.53
2018-08-28T07:14:15.058Z,1013.56
2018-08-28T07:15:15.043Z,1013.54
2018-08-28T07:16:15.030Z,1013.55
2018-08-28T07:17:15.021Z,1013.56
2018-08-28T07:18:15.004Z,1013.58
2018-08-28T07:19:14.989Z,1013.56
2018-08-28T07:20:14.980Z,1013.57
2018-08-28T07:21:14.964Z,1013.60
2018-08-28T07:22:14.951Z,1013.60
2018-08-28T07:23:14.942Z,1013.65
2018-08-28T07:24:14.930Z,1013.62
2018-08-28T07:25:14.912Z,1013.64
2018-08-28T07:26:14.900Z,1013.66
2018-08-28T07:27:14.891Z,1013.65
2018-08-28T07:28:14.881Z,1013.64
2018-08-28T07:29:14.865Z,1013.67
2018-08-28T07:30:14.850Z,1013.68
2018-08-28T07:31:14.842Z,1013.68
2018-08-28T07:32:14.826Z,1013.69
2018-08-28T07:33:14.813Z,1013.72
2018-08-28T07:34:14.805Z,1013.69
2018-08-28T07:35:14.788Z,1013.71
2018-08-28T07:36:14.779Z,1013.76
2018-08-28T07:37:14.765Z,1013.78
2018-08-28T07:38:14.748Z,1013.79
2018-08-28T07:39:14.737Z,1013.77
2018-08-28T07:40:14.726Z,1013.81
2018-08-28T07:41:14.712Z,1013.78
2018-08-28T07:42:14.698Z,1013.77
2018-08-28T07:43:14.688Z,1013.77
2018-08-28T07:44:14.677Z,1013.76
2018-08-28T07:45:14.661Z,1013.80
2018-08-28T07:46:14.652Z,1013.75
2018-08-28T07:47:14.638Z,1013.82
2018-08-28T07:48:14.670Z,1013.78
2018-08-28T07:49:14.611Z,1013.82
2018-08-28T07:50:14.598Z,1013.81
2018-08-28T07:51:14.586Z,1013.82
2018-08-28T07:52:14.582Z,1013.83
2018-08-28T07:53:14.561Z,1013.83
2018-08-28T07:54:14.549Z,1013.82
2018-08-28T07:55:14.538Z,1013.80
2018-08-28T07:56:14.522Z,1013.85
2018-08-28T07:57:14.514Z,1013.81
2018-08-28T07:58:14.499Z,1013.82
2018-08-28T07:59:14.492Z,1013.83
2018-08-28T08:00:14.473Z,1013.83
2018-08-28T08:01:14.472Z,1013.83
2018-08-28T08:02:14.449Z,1013.80
2018-08-28T08:03:14.436Z,1013.82
2018-08-28T08:04:14.468Z,1013.80
2018-08-28T08:05:14.410Z,1013.86
2018-08-28T08:06:14.405Z,1013.82
2018-08-28T08:07:14.390Z,1013.87
2018-08-28T08:08:14.380Z,1013.90
2018-08-28T08:09:14.368Z,1013.93
2018-08-28T08:10:14.403Z,1013.93
2018-08-28T08:11:14.343Z,1013.90
2018-08-28T08:12:14.331Z,1013.92
2018-08-28T08:13:14.320Z,1013.92
2018-08-28T08:14:14.307Z,1013.94
2018-08-28T08:15:14.302Z,1013.92
2018-08-28T08:16:14.417Z,1013.94
2018-08-28T08:17:14.267Z,1013.92
2018-08-28T08:18:14.262Z,1013.91
2018-08-28T08:19:14.244Z,1013.90
2018-08-28T08:20:14.232Z,1013.93
2018-08-28T08:21:14.225Z,1013.94
2018-08-28T08:22:14.298Z,1013.96
2018-08-28T08:23:14.205Z,1013.94
2018-08-28T08:24:14.188Z,1013.96
2018-08-28T08:25:14.173Z,1014.00
2018-08-28T08:26:14.164Z,1013.94
2018-08-28T08:27:14.151Z,1013.93
2018-08-28T08:28:14.366Z,1013.92
2018-08-28T08:29:14.129Z,1013.93
2018-08-28T08:30:14.120Z,1013.93
2018-08-28T08:31:14.114Z,1013.96
2018-08-28T08:32:14.098Z,1013.94
2018-08-28T08:33:14.087Z,1013.96
2018-08-28T08:34:14.076Z,1013.96
2018-08-28T08:35:14.100Z,1013.94
2018-08-28T08:36:14.058Z,1013.98
2018-08-28T08:37:14.041Z,1014.00
2018-08-28T08:38:14.030Z,1014.02
2018-08-28T08:39:14.024Z,1014.02
2018-08-28T08:40:14.009Z,1014.00
2018-08-28T08:41:14.002Z,1014.04
2018-08-28T08:42:13.995Z,1014.04
2018-08-28T08:43:13.989Z,1014.04
2018-08-28T08:44:13.976Z,1014.00
2018-08-28T08:45:13.958Z,1014.04
2018-08-28T08:46:13.948Z,1013.98
2018-08-28T08:47:13.939Z,1013.98
2018-08-28T08:48:13.927Z,1014.02
2018-08-28T08:49:13.919Z,1014.00
2018-08-28T08:50:13.913Z,1014.01
2018-08-28T08:51:13.921Z,1014.06
2018-08-28T08:52:13.887Z,1014.00
2018-08-28T08:53:13.880Z,1014.03
2018-08-28T08:54:13.865Z,1014.02
2018-08-28T08:55:13.861Z,1014.01
2018-08-28T08:56:13.847Z,1013.99
2018-08-28T08:57:13.913Z,1014.03
2018-08-28T08:58:13.828Z,1014.02
2018-08-28T08:59:13.820Z,1013.97
2018-08-28T09:00:13.807Z,1013.96
2018-08-28T09:01:13.797Z,1013.97
2018-08-28T09:02:13.790Z,1013.96
2018-08-28T09:03:13.778Z,1014.00
2018-08-28T09:04:13.766Z,1014.01
2018-08-28T09:05:13.757Z,1013.96
2018-08-28T09:06:13.933Z,1013.97
2018-08-28T09:07:13.739Z,1014.00
2018-08-28T09:08:13.730Z,1013.96
2018-08-28T09:09:13.730Z,1013.98
2018-08-28T09:10:13.717Z,1013.95
2018-08-28T09:11:13.699Z,1013.97
2018-08-28T09:12:13.758Z,1013.93
2018-08-28T09:13:13.683Z,1013.96
2018-08-28T09:14:13.679Z,1013.99
2018-08-28T09:15:13.666Z,1013.99
2018-08-28T09:16:13.650Z,1013.96
2018-08-28T09:17:13.640Z,1014.02
2018-08-28T09:18:13.630Z,1013.99
2018-08-28T09:19:13.665Z,1013.97
2018-08-28T09:20:13.611Z,1013.95
2018-08-28T09:21:13.604Z,1013.95
2018-08-28T09:22:13.597Z,1013.95
2018-08-28T09:23:13.584Z,1013.96
2018-08-28T09:24:13.572Z,1013.91
2018-08-28T09:25:13.563Z,1013.88
2018-08-28T09:26:13.558Z,1013.89
2018-08-28T09:27:13.548Z,1013.85
2018-08-28T09:28:13.546Z,1013.84
2018-08-28T09:29:13.523Z,1013.86
2018-08-28T09:30:13.516Z,1013.84
2018-08-28T09:31:13.529Z,1013.92
2018-08-28T09:32:13.549Z,1013.90
2018-08-28T09:33:13.487Z,1013.90
2018-08-28T09:34:13.478Z,1013.88
2018-08-28T09:35:13.466Z,1013.85
2018-08-28T09:36:13.456Z,1013.88
2018-08-28T09:37:13.456Z,1013.90
2018-08-28T09:38:13.450Z,1013.91
2018-08-28T09:39:13.424Z,1013.88
2018-08-28T09:40:13.418Z,1013.86
2018-08-28T09:41:13.408Z,1013.85
2018-08-28T09:42:13.401Z,1013.88
2018-08-28T09:43:13.392Z,1013.89
2018-08-28T09:44:13.379Z,1013.89
2018-08-28T09:45:13.369Z,1013.90
2018-08-28T09:46:13.362Z,1013.91
2018-08-28T09:47:13.346Z,1013.87
2018-08-28T09:48:13.507Z,1013.87
2018-08-28T09:49:13.325Z,1013.91
2018-08-28T09:50:13.399Z,1013.92
2018-08-28T09:51:13.307Z,1013.91
2018-08-28T09:52:13.297Z,1013.93
2018-08-28T09:53:13.290Z,1013.92
2018-08-28T09:54:13.278Z,1013.94
2018-08-28T09:55:13.268Z,1013.88
2018-08-28T09:56:13.252Z,1013.88
2018-08-28T09:57:13.247Z,1013.89
2018-08-28T09:58:13.238Z,1013.90
2018-08-28T09:59:13.222Z,1013.91
2018-08-28T10:00:13.216Z,1013.90
2018-08-28T10:01:13.204Z,1013.91
2018-08-28T10:02:13.194Z,1013.88
2018-08-28T10:03:13.182Z,1013.90
2018-08-28T10:04:13.173Z,1013.91
2018-08-28T10:05:13.162Z,1013.91
2018-08-28T10:06:13.155Z,1013.92
2018-08-28T10:07:13.147Z,1013.86
2018-08-28T10:08:13.134Z,1013.89
2018-08-28T10:09:13.121Z,1013.90
2018-08-28T10:10:13.110Z,1013.89
2018-08-28T10:11:13.098Z,1013.87
2018-08-28T10:12:13.088Z,1013.91
2018-08-28T10:13:13.086Z,1013.94
2018-08-28T10:14:13.066Z,1013.88
2018-08-28T10:15:13.063Z,1013.88
2018-08-28T10:16:13.044Z,1013.87
2018-08-28T10:17:13.050Z,1013.85
2018-08-28T10:18:13.026Z,1013.90
2018-08-28T10:19:13.014Z,1013.89
2018-08-28T10:20:13.003Z,1013.89
2018-08-28T10:21:13.002Z,1013.88
2018-08-28T10:22:12.982Z,1013.91
2018-08-28T10:23:12.972Z,1013.90
2018-08-28T10:24:12.957Z,1013.93
2018-08-28T10:25:12.950Z,1013.85
2018-08-28T10:26:12.945Z,1013.92
2018-08-28T10:27:12.928Z,1013.90
2018-08-28T10:28:12.916Z,1013.88
2018-08-28T10:29:12.905Z,1013.90
2018-08-28T10:30:12.905Z,1013.88
2018-08-28T10:31:12.885Z,1013.87
2018-08-28T10:32:12.875Z,1013.89
2018-08-28T10:33:12.862Z,1013.90
2018-08-28T10:34:12.854Z,1013.90
2018-08-28T10:35:12.839Z,1013.87
2018-08-28T10:36:12.829Z,1013.86
2018-08-28T10:37:12.820Z,1013.84
2018-08-28T10:38:12.893Z,1013.83
2018-08-28T10:39:12.795Z,1013.88
2018-08-28T10:40:12.784Z,1013.87
2018-08-28T10:41:12.774Z,1013.88
2018-08-28T10:42:12.765Z,1013.84
2018-08-28T10:43:12.754Z,1013.88
2018-08-28T10:44:12.742Z,1013.87
2018-08-28T10:45:12.736Z,1013.90
2018-08-28T10:46:12.771Z,1013.87
2018-08-28T10:47:12.708Z,1013.85
2018-08-28T10:48:12.695Z,1013.87
2018-08-28T10:49:12.687Z,1013.91
2018-08-28T10:50:12.676Z,1013.93
2018-08-28T10:51:12.665Z,1013.89
2018-08-28T10:52:12.654Z,1013.89
2018-08-28T10:53:12.640Z,1013.89
2018-08-28T10:54:12.628Z,1013.89
2018-08-28T10:55:12.619Z,1013.88
2018-08-28T10:56:12.614Z,1013.91
2018-08-28T10:57:12.601Z,1013.86
2018-08-28T10:58:12.591Z,1013.87
2018-08-28T10:59:12.572Z,1013.89
2018-08-28T11:00:12.564Z,1013.91
2018-08-28T11:01:12.559Z,1013.91
2018-08-28T11:02:12.546Z,1013.92
2018-08-28T11:03:12.528Z,1013.93
2018-08-28T11:04:12.520Z,1013.90
2018-08-28T11:05:12.512Z,1013.93
2018-08-28T11:06:12.497Z,1013.93
2018-08-28T11:07:12.485Z,1013.92
2018-08-28T11:08:12.476Z,1013.91
2018-08-28T11:09:12.466Z,1013.90
2018-08-28T11:10:12.455Z,1013.96
2018-08-28T11:11:12.440Z,1013.96
2018-08-28T11:12:12.430Z,1013.95
2018-08-28T11:13:12.419Z,1013.94
2018-08-28T11:14:12.423Z,1013.94
2018-08-28T11:15:12.403Z,1013.92
2018-08-28T11:16:12.466Z,1013.95
2018-08-28T11:17:12.377Z,1013.99
2018-08-28T11:18:12.372Z,1013.99
2018-08-28T11:19:12.357Z,1013.95
2018-08-28T11:20:12.345Z,1013.97
2018-08-28T11:21:12.335Z,1013.96
2018-08-28T11:22:12.332Z,1013.98
2018-08-28T11:23:12.313Z,1013.98
2018-08-28T11:24:12.307Z,1013.98
2018-08-28T11:25:12.306Z,1013.98
2018-08-28T11:26:12.286Z,1014.04
2018-08-28T11:27:12.278Z,1013.99
2018-08-28T11:28:12.265Z,1014.00
2018-08-28T11:29:12.251Z,1014.01
2018-08-28T11:30:12.241Z,1014.04
2018-08-28T11:31:12.286Z,1014.04
2018-08-28T11:32:12.228Z,1013.95
2018-08-28T11:33:12.214Z,1013.94
2018-08-28T11:34:12.208Z,1013.96
2018-08-28T11:35:12.203Z,1014.00
2018-08-28T11:36:12.183Z,1013.97
2018-08-28T11:37:12.178Z,1013.95
2018-08-28T11:38:12.176Z,1013.88
2018-08-28T11:39:12.158Z,1013.90
2018-08-28T11:40:12.146Z,1013.89
2018-08-28T11:41:12.139Z,1013.86
2018-08-28T11:42:12.139Z,1013.87
2018-08-28T11:43:12.124Z,1013.92
2018-08-28T11:44:12.111Z,1013.91
2018-08-28T11:45:12.103Z,1013.93
2018-08-28T11:46:12.099Z,1013.87
2018-08-28T11:47:12.175Z,1013.91
2018-08-28T11:48:12.078Z,1013.90
2018-08-28T11:49:12.069Z,1013.90
2018-08-28T11:50:12.064Z,1013.86
2018-08-28T11:51:12.050Z,1013.83
2018-08-28T11:52:12.087Z,1013.83
2018-08-28T11:53:12.040Z,1013.83
2018-08-28T11:54:12.027Z,1013.82
2018-08-28T11:55:12.021Z,1013.74
2018-08-28T11:56:12.012Z,1013.74
2018-08-28T11:57:12.002Z,1013.74
2018-08-28T11:58:11.994Z,1013.72
2018-08-28T11:59:11.986Z,1013.70
2018-08-28T12:00:11.982Z,1013.74
2018-08-28T12:01:11.970Z,1013.75
2018-08-28T12:02:11.963Z,1013.74
2018-08-28T12:03:11.953Z,1013.80
2018-08-28T12:04:11.953Z,1013.77
2018-08-28T12:05:12.044Z,1013.79